Time;durP1;ratioP1;P1;durP2;ratioP2;P2;SDS_P1;SDS_P2;PMS_P1;PMS_P2;Temp;Humidity;BMP_temperature;BMP_pressure;BME280_temperature;BME280_humidity;BME280_pressure;Samples;Min_cycle;Max_cycle;Signal;HPM_P1;HPM_P2
2021/12/18 00:01:41;;;;;;;;;;;;;;;1.19;61.32;97535.78;4993309;28;19918;-67
2021/12/18 00:04:06;;;;;;;;;;;;;;;1.08;61.56;97523.19;4998623;28;19921;-65
2021/12/18 00:06:31;;;;;;;;;;;;;;;1.03;59.92;97527.81;4992668;28;19925;-62
2021/12/18 00:08:57;;;;;;;;;;;;;;;1.07;62.44;97515.38;4990685;28;20279;-66
2021/12/18 00:11:22;;;;;;;;;;;;;;;1.10;62.24;97517.88;5002464;28;19929;-64
2021/12/18 00:13:49;;;;;;;;;;;;;;;1.12;62.96;97516.00;4995390;28;20362;-63
2021/12/18 00:16:14;;;;;;;;;;;;;;;1.15;62.41;97521.13;4998994;28;19989;-66
2021/12/18 00:18:39;;;;;;;;;;;;;;;1.18;62.35;97509.63;5006432;28;20363;-64
2021/12/18 00:21:07;;;;;;;;;;;;;;;1.17;61.84;97508.78;5002291;28;19960;-66
2021/12/18 00:23:32;;;;;;;;;;;;;;;1.14;61.98;97503.69;4986010;28;19926;-69
2021/12/18 00:25:57;;;;;;;;;;;;;;;1.12;62.00;97502.88;4999539;28;19930;-69
2021/12/18 00:28:22;;;;;;;;;;;;;;;1.10;61.84;97502.97;4993883;28;19929;-69
2021/12/18 00:30:48;;;;;;;;;;;;;;;1.14;62.16;97502.81;5005616;28;19921;-65
2021/12/18 00:33:13;;;;;;;;;;;;;;;1.11;61.71;97509.94;4992149;28;19922;-67
2021/12/18 00:35:39;;;;;;;;;;;;;;;1.06;61.29;97501.41;5005152;28;19929;-69
2021/12/18 00:38:05;;;;;;;;;;;;;;;1.06;61.87;97508.44;4992257;28;19925;-68
2021/12/18 00:40:42;;;;;;;;;;;;;;;1.07;62.37;97499.63;5005422;28;20233;-67
2021/12/18 00:43:21;;;;;;;;;;;;;;;1.05;61.18;97501.47;4991620;28;19922;-68
2021/12/18 00:45:47;;;;;;;;;;;;;;;1.05;62.22;97504.09;5005506;28;19963;-67
2021/12/18 00:48:12;;;;;;;;;;;;;;;1.06;61.92;97497.94;4994955;28;19933;-65
2021/12/18 00:50:37;;;;;;;;;;;;;;;1.06;62.20;97501.41;5000005;28;19977;-69
2021/12/18 00:53:02;;;;;;;;;;;;;;;1.07;62.39;97502.25;5013607;28;19933;-67
2021/12/18 00:55:28;;;;;;;;;;;;;;;1.07;60.87;97492.63;5020768;28;20255;-66
2021/12/18 00:57:53;;;;;;;;;;;;;;;0.89;55.67;97493.47;5015233;28;19965;-64
2021/12/18 01:00:23;;;;;;;;;;;;;;;0.90;61.69;97497.78;5022936;28;19925;-68
2021/12/18 01:02:55;;;;;;;;;;;;;;;0.97;62.30;97505.31;5014153;28;19940;-68
2021/12/18 01:05:20;;;;;;;;;;;;;;;1.03;61.13;97495.47;5022928;28;19921;-66
2021/12/18 01:07:45;;;;;;;;;;;;;;;1.09;61.78;97503.88;5011335;28;19952;-67
2021/12/18 01:12:45;;;;;;;;;;;;;;;1.17;62.07;97513.19;5011124;28;19979;-66
2021/12/18 01:15:21;;;;;;;;;;;;;;;1.14;60.75;97508.94;5023415;28;20015;-68
2021/12/18 01:23:14;;;;;;;;;;;;;;;1.18;62.23;97507.00;5014641;28;19966;-67
2021/12/18 01:25:40;;;;;;;;;;;;;;;1.18;61.60;97510.50;5020253;28;20333;-66
2021/12/18 01:28:05;;;;;;;;;;;;;;;1.18;61.96;97499.13;5011871;28;19953;-70
2021/12/18 01:30:30;;;;;;;;;;;;;;;1.18;62.04;97502.63;5015054;28;20367;-67
2021/12/18 01:32:55;;;;;;;;;;;;;;;1.16;61.70;97498.38;5022088;28;20519;-66
2021/12/18 01:35:21;;;;;;;;;;;;;;;1.16;61.96;97506.25;5012473;28;19937;-67
2021/12/18 01:37:47;;;;;;;;;;;;;;;1.17;61.95;97514.03;5024410;28;20353;-68
2021/12/18 01:40:12;;;;;;;;;;;;;;;1.17;61.69;97507.94;5010916;28;19925;-68
2021/12/18 01:52:59;;;;;;;;;;;;;;;1.08;61.59;97509.19;5010654;28;19982;-66
2021/12/18 01:55:26;;;;;;;;;;;;;;;1.08;60.95;97515.31;5022945;28;20460;-69
2021/12/18 01:57:52;;;;;;;;;;;;;;;1.08;61.79;97514.44;5011167;28;20228;-67
2021/12/18 02:00:22;;;;;;;;;;;;;;;1.09;62.06;97509.13;5024006;28;19967;-67
2021/12/18 02:02:47;;;;;;;;;;;;;;;1.11;58.17;97509.94;5010955;28;20630;-65
2021/12/18 02:05:12;;;;;;;;;;;;;;;0.99;58.33;97515.75;5010892;28;19925;-70
2021/12/18 02:07:38;;;;;;;;;;;;;;;1.05;62.18;97509.34;5009759;28;20353;-66
2021/12/18 02:10:08;;;;;;;;;;;;;;;1.10;60.02;97518.69;5024809;28;19920;-67
2021/12/18 02:20:44;;;;;;;;;;;;;;;1.28;61.71;97510.91;5021848;28;20498;-67
2021/12/18 02:23:09;;;;;;;;;;;;;;;1.33;61.49;97522.03;5010376;28;20299;-67
2021/12/18 02:25:36;;;;;;;;;;;;;;;1.39;61.20;97515.63;5022692;28;19966;-65
2021/12/18 02:28:02;;;;;;;;;;;;;;;1.33;60.68;97510.69;5005699;28;19995;-68
2021/12/18 02:30:27;;;;;;;;;;;;;;;1.36;60.99;97513.16;5024128;28;20454;-66
2021/12/18 02:32:52;;;;;;;;;;;;;;;1.39;61.31;97509.56;5008889;28;19982;-68
2021/12/18 02:35:28;;;;;;;;;;;;;;;1.40;61.08;97501.56;5012638;28;20515;-66
2021/12/18 02:38:09;;;;;;;;;;;;;;;1.42;61.08;97510.25;5023860;28;20837;-67
2021/12/18 02:40:55;;;;;;;;;;;;;;;1.41;61.05;97510.31;5009876;28;19997;-69
2021/12/18 02:43:28;;;;;;;;;;;;;;;1.35;59.76;97499.19;5009968;28;20453;-68
2021/12/18 02:45:58;;;;;;;;;;;;;;;1.23;57.95;97492.75;5024182;28;19969;-65
2021/12/18 02:48:23;;;;;;;;;;;;;;;1.27;59.58;97492.59;5009587;28;20085;-65
2021/12/18 02:50:48;;;;;;;;;;;;;;;1.34;59.85;97494.00;5023892;28;20078;-69
2021/12/18 02:53:13;;;;;;;;;;;;;;;1.39;60.30;97485.94;5010318;28;19993;-69
2021/12/18 02:55:39;;;;;;;;;;;;;;;1.41;60.50;97490.19;5007502;28;19990;-66
2021/12/18 02:58:04;;;;;;;;;;;;;;;1.44;60.99;97486.53;5012446;28;19986;-67
2021/12/18 03:00:29;;;;;;;;;;;;;;;1.47;60.74;97492.47;5020458;28;20457;-66
2021/12/18 03:02:55;;;;;;;;;;;;;;;1.45;60.00;97488.25;5014234;28;20108;-67
2021/12/18 03:05:28;;;;;;;;;;;;;;;1.42;59.24;97480.50;5012539;28;20080;-68
2021/12/18 03:08:00;;;;;;;;;;;;;;;1.40;60.34;97475.31;5016824;28;19993;-69
2021/12/18 03:22:25;;;;;;;;;;;;;;;1.35;61.03;97475.56;5009366;28;20021;-67
2021/12/18 03:26:46;;;;;;;;;;;;;;;1.42;60.74;97485.75;5009351;28;20441;-65
2021/12/18 03:29:11;;;;;;;;;;;;;;;1.44;59.30;97476.03;5006988;28;20497;-68
2021/12/18 03:31:36;;;;;;;;;;;;;;;1.39;60.67;97480.69;5006592;28;20370;-68
2021/12/18 03:34:01;;;;;;;;;;;;;;;1.36;60.85;97477.25;5010213;28;19990;-65
2021/12/18 03:36:27;;;;;;;;;;;;;;;1.33;60.82;97482.66;5010441;28;20051;-69
2021/12/18 03:38:52;;;;;;;;;;;;;;;1.30;60.44;97485.41;5011199;28;20442;-67
2021/12/18 03:41:17;;;;;;;;;;;;;;;1.27;61.22;97496.09;5019808;28;19993;-67
2021/12/18 03:43:43;;;;;;;;;;;;;;;1.26;60.68;97485.66;5013356;28;20115;-68
2021/12/18 03:46:08;;;;;;;;;;;;;;;1.24;60.40;97489.22;5018300;28;20067;-68
2021/12/18 03:48:33;;;;;;;;;;;;;;;1.11;55.45;97486.31;5003912;28;19981;-68
2021/12/18 03:50:59;;;;;;;;;;;;;;;0.94;55.31;97488.84;5016354;28;20392;-69
2021/12/18 03:53:24;;;;;;;;;;;;;;;0.93;61.47;97495.91;5016838;28;20405;-66
2021/12/18 03:55:49;;;;;;;;;;;;;;;1.00;61.68;97490.34;5014418;28;20004;-68
2021/12/18 03:58:14;;;;;;;;;;;;;;;1.02;61.57;97494.59;5018584;28;19966;-68
2021/12/18 04:00:40;;;;;;;;;;;;;;;1.06;61.59;97490.91;5012811;28;20490;-65
2021/12/18 04:03:05;;;;;;;;;;;;;;;1.08;60.97;97483.84;5020125;28;19985;-67
2021/12/18 04:05:30;;;;;;;;;;;;;;;1.10;61.12;97481.97;5008161;28;19966;-66
2021/12/18 04:08:08;;;;;;;;;;;;;;;1.07;60.69;97487.38;5017383;28;19998;-67
2021/12/18 04:10:33;;;;;;;;;;;;;;;1.03;60.81;97490.22;4999293;28;20185;-68
2021/12/18 04:12:59;;;;;;;;;;;;;;;1.05;61.54;97493.59;5008324;28;20194;-67
2021/12/18 04:15:25;;;;;;;;;;;;;;;1.05;61.49;97485.72;5022036;28;20371;-69
2021/12/18 04:17:50;;;;;;;;;;;;;;;1.02;61.27;97486.72;5008856;28;20513;-67
2021/12/18 04:20:16;;;;;;;;;;;;;;;1.01;61.29;97482.41;5022245;28;20001;-68
2021/12/18 04:22:41;;;;;;;;;;;;;;;0.97;61.09;97486.09;5009551;28;20033;-69
2021/12/18 04:25:06;;;;;;;;;;;;;;;0.98;61.55;97482.56;5020976;28;19997;-69
2021/12/18 04:27:31;;;;;;;;;;;;;;;0.97;61.30;97483.47;5005938;28;19989;-66
2021/12/18 04:29:57;;;;;;;;;;;;;;;0.89;58.04;97481.19;5019632;28;19973;-68
2021/12/18 04:32:22;;;;;;;;;;;;;;;0.77;59.85;97481.78;5012918;28;20073;-69
2021/12/18 04:34:49;;;;;;;;;;;;;;;0.67;60.27;97490.06;5017011;28;21435;-68
2021/12/18 04:37:14;;;;;;;;;;;;;;;0.68;62.14;97490.94;5009768;28;20026;-68
2021/12/18 04:39:40;;;;;;;;;;;;;;;0.75;62.45;97494.94;5016361;28;20102;-67
2021/12/18 04:42:05;;;;;;;;;;;;;;;0.87;62.01;97488.31;5016111;28;19970;-67
2021/12/18 04:44:30;;;;;;;;;;;;;;;0.97;61.94;97493.97;5013906;28;20462;-69
2021/12/18 04:46:56;;;;;;;;;;;;;;;1.06;62.20;97501.41;5016900;28;20009;-66
2021/12/18 04:49:21;;;;;;;;;;;;;;;1.16;61.25;97501.00;5014337;28;19966;-66
2021/12/18 04:51:46;;;;;;;;;;;;;;;1.17;61.79;97494.81;5022980;28;20021;-66
2021/12/18 04:54:11;;;;;;;;;;;;;;;1.28;61.57;97500.41;5014167;28;20008;-69
2021/12/18 04:56:37;;;;;;;;;;;;;;;1.36;61.14;97498.25;5025400;28;20191;-66
2021/12/18 04:59:03;;;;;;;;;;;;;;;1.42;60.58;97506.75;5011656;28;20064;-66
2021/12/18 05:01:28;;;;;;;;;;;;;;;1.46;60.75;97510.94;5012819;28;19966;-65
2021/12/18 05:03:54;;;;;;;;;;;;;;;1.50;60.31;97510.72;5011623;28;20672;-67
2021/12/18 05:06:19;;;;;;;;;;;;;;;1.52;60.19;97507.16;5011633;28;19993;-68
2021/12/18 05:08:44;;;;;;;;;;;;;;;1.55;59.94;97505.28;5025135;28;20084;-67
2021/12/18 05:11:09;;;;;;;;;;;;;;;1.58;60.41;97506.91;5011437;28;19973;-65
2021/12/18 05:13:35;;;;;;;;;;;;;;;1.54;58.54;97497.47;5025461;28;19989;-67
2021/12/18 05:16:00;;;;;;;;;;;;;;;1.51;59.60;97498.47;5012605;28;20105;-68
2021/12/18 05:18:25;;;;;;;;;;;;;;;1.47;59.33;97497.72;5005392;28;19961;-70
2021/12/18 05:20:50;;;;;;;;;;;;;;;1.41;59.43;97489.31;5017496;28;20002;-67
2021/12/18 05:23:16;;;;;;;;;;;;;;;1.36;59.75;97492.16;5020979;28;20744;-65
2021/12/18 05:25:41;;;;;;;;;;;;;;;1.32;59.22;97491.47;5013468;28;19978;-69
2021/12/18 05:28:06;;;;;;;;;;;;;;;1.24;57.93;97497.09;5014732;28;19986;-67
2021/12/18 05:30:31;;;;;;;;;;;;;;;1.20;60.45;97494.69;5013168;28;19978;-66
2021/12/18 05:32:57;;;;;;;;;;;;;;;1.19;60.08;97496.44;5017867;28;20112;-66
2021/12/18 05:35:22;;;;;;;;;;;;;;;1.25;59.91;97495.28;5017682;28;20382;-66
2021/12/18 05:37:53;;;;;;;;;;;;;;;1.31;60.74;97489.78;5020253;28;20008;-68
2021/12/18 05:40:19;;;;;;;;;;;;;;;1.41;59.57;97481.44;5016721;28;20004;-69
2021/12/18 05:42:45;;;;;;;;;;;;;;;1.49;59.25;97495.03;5021032;28;19970;-69
2021/12/18 05:45:10;;;;;;;;;;;;;;;1.55;60.04;97492.16;5014937;28;20064;-67
2021/12/18 05:47:35;;;;;;;;;;;;;;;1.59;59.49;97492.84;5013565;28;20087;-66
2021/12/18 05:50:00;;;;;;;;;;;;;;;1.68;59.88;97489.78;5024026;28;20031;-65
2021/12/18 05:52:26;;;;;;;;;;;;;;;1.77;59.74;97485.84;5022729;28;19996;-68
2021/12/18 05:54:51;;;;;;;;;;;;;;;1.86;60.03;97484.53;5010771;28;19981;-69
2021/12/18 05:57:16;;;;;;;;;;;;;;;1.81;59.51;97487.38;5024658;28;19998;-65
2021/12/18 05:59:42;;;;;;;;;;;;;;;1.94;54.87;97482.38;5010335;28;20336;-66
2021/12/18 06:02:07;;;;;;;;;;;;;;;1.92;58.26;97483.38;5023611;28;20454;-69
2021/12/18 06:04:32;;;;;;;;;;;;;;;1.91;59.00;97486.94;5010311;28;20001;-68
2021/12/18 06:07:04;;;;;;;;;;;;;;;1.92;59.29;97494.75;5015260;28;20415;-66
2021/12/18 06:09:30;;;;;;;;;;;;;;;1.97;58.94;97489.22;5007459;28;19990;-69
2021/12/18 06:11:55;;;;;;;;;;;;;;;2.00;59.59;97494.34;5023822;28;20323;-68
2021/12/18 06:14:20;;;;;;;;;;;;;;;2.00;59.31;97495.19;5010341;28;19997;-69
2021/12/18 06:16:45;;;;;;;;;;;;;;;1.97;59.03;97497.13;5018714;28;20475;-65
2021/12/18 06:19:11;;;;;;;;;;;;;;;1.91;57.61;97494.81;5004761;28;20478;-67
2021/12/18 06:21:36;;;;;;;;;;;;;;;1.87;58.42;97496.72;5013259;28;20000;-67
2021/12/18 06:24:01;;;;;;;;;;;;;;;1.73;58.29;97494.78;5011560;28;20017;-67
2021/12/18 06:26:27;;;;;;;;;;;;;;;1.69;59.04;97485.38;5019082;28;19973;-68
2021/12/18 06:28:52;;;;;;;;;;;;;;;1.56;59.35;97493.00;5013536;28;20660;-66
2021/12/18 06:31:17;;;;;;;;;;;;;;;1.49;57.90;97498.53;5019826;28;20471;-69
2021/12/18 06:33:43;;;;;;;;;;;;;;;1.46;59.96;97493.41;5015174;28;19982;-64
2021/12/18 06:36:08;;;;;;;;;;;;;;;1.44;59.90;97489.16;4996991;28;20029;-69
2021/12/18 06:38:33;;;;;;;;;;;;;;;1.43;59.81;97487.47;4984914;28;19970;-68
2021/12/18 06:40:58;;;;;;;;;;;;;;;1.42;59.68;97488.38;4984047;28;20001;-65
2021/12/18 06:43:24;;;;;;;;;;;;;;;1.36;60.20;97485.13;4983356;28;19986;-66
2021/12/18 06:45:49;;;;;;;;;;;;;;;1.37;59.85;97492.06;4982908;28;20028;-67
2021/12/18 06:48:14;;;;;;;;;;;;;;;1.35;59.60;97486.06;4979891;28;20359;-68
2021/12/18 06:50:39;;;;;;;;;;;;;;;1.36;60.33;97486.91;4983187;28;20043;-64
2021/12/18 06:53:05;;;;;;;;;;;;;;;1.42;59.41;97485.75;4983580;28;19998;-69
2021/12/18 06:55:30;;;;;;;;;;;;;;;1.39;59.64;97484.13;4983040;28;19990;-65
2021/12/18 06:57:56;;;;;;;;;;;;;;;1.36;59.55;97490.38;4998189;28;19977;-65
2021/12/18 07:00:21;;;;;;;;;;;;;;;1.34;59.74;97486.13;4980939;28;20013;-68
2021/12/18 07:02:46;;;;;;;;;;;;;;;1.31;59.90;97491.53;4984046;28;20000;-67
2021/12/18 07:05:11;;;;;;;;;;;;;;;1.27;60.53;97492.59;4983450;28;19990;-65
2021/12/18 07:07:37;;;;;;;;;;;;;;;1.24;60.41;97491.84;4983819;28;19986;-66
2021/12/18 07:10:06;;;;;;;;;;;;;;;1.24;59.56;97498.84;4983535;28;19970;-67
2021/12/18 07:12:31;;;;;;;;;;;;;;;1.21;60.34;97497.22;4974159;28;19994;-68
2021/12/18 07:14:56;;;;;;;;;;;;;;;1.12;58.64;97497.63;4984130;28;20009;-69
2021/12/18 07:17:21;;;;;;;;;;;;;;;1.05;58.76;97502.34;4982702;28;20036;-69
2021/12/18 07:19:47;;;;;;;;;;;;;;;1.04;60.29;97495.38;4983335;28;20546;-67
2021/12/18 07:22:12;;;;;;;;;;;;;;;1.05;60.25;97499.72;4983618;28;20044;-68
2021/12/18 07:24:37;;;;;;;;;;;;;;;1.06;61.08;97495.31;4983027;28;19993;-69
2021/12/18 07:27:02;;;;;;;;;;;;;;;1.06;60.65;97484.84;4982863;28;19971;-69
2021/12/18 07:29:28;;;;;;;;;;;;;;;1.08;60.46;97496.94;4983832;28;20284;-67
2021/12/18 07:31:53;;;;;;;;;;;;;;;1.08;60.95;97496.94;4983087;28;20515;-67
2021/12/18 07:34:18;;;;;;;;;;;;;;;1.05;60.17;97499.72;4982982;28;19994;-66
2021/12/18 07:36:43;;;;;;;;;;;;;;;1.06;60.30;97501.41;4979179;28;19994;-70
2021/12/18 07:39:09;;;;;;;;;;;;;;;1.09;59.98;97501.25;4973408;28;19974;-68
2021/12/18 07:41:34;;;;;;;;;;;;;;;1.10;60.96;97497.72;4998290;28;20005;-67
2021/12/18 07:43:59;;;;;;;;;;;;;;;1.14;59.99;97498.44;4982401;28;20366;-67
2021/12/18 07:46:24;;;;;;;;;;;;;;;1.17;60.73;97505.31;4982531;28;19971;-70
2021/12/18 07:48:49;;;;;;;;;;;;;;;1.21;60.85;97499.84;4971961;28;19986;-65
2021/12/18 07:51:15;;;;;;;;;;;;;;;1.28;60.66;97500.41;4978959;28;20497;-69
2021/12/18 07:53:40;;;;;;;;;;;;;;;1.32;60.29;97495.84;4983331;28;20491;-69
2021/12/18 07:56:09;;;;;;;;;;;;;;;1.43;60.27;97500.59;4982517;28;19990;-68
2021/12/18 07:58:34;;;;;;;;;;;;;;;1.48;60.35;97496.84;4983196;28;20024;-68
2021/12/18 08:00:59;;;;;;;;;;;;;;;1.49;56.02;97508.16;4982817;28;20030;-69
2021/12/18 08:03:24;;;;;;;;;;;;;;;1.44;57.88;97504.91;4982740;28;19987;-67
2021/12/18 08:05:50;;;;;;;;;;;;;;;1.52;58.75;97502.78;4983050;28;19983;-66
2021/12/18 08:08:15;;;;;;;;;;;;;;;1.60;58.52;97505.91;4983045;28;20505;-68
2021/12/18 08:10:40;;;;;;;;;;;;;;;1.52;57.57;97508.03;4983464;28;19985;-69
2021/12/18 08:13:06;;;;;;;;;;;;;;;1.58;58.95;97502.53;4980853;28;20064;-65
2021/12/18 08:15:31;;;;;;;;;;;;;;;1.70;59.29;97500.22;4982605;28;20077;-67
2021/12/18 08:18:03;;;;;;;;;;;;;;;1.78;56.48;97502.44;4982317;28;19978;-68
2021/12/18 08:20:29;;;;;;;;;;;;;;;1.90;59.26;97507.09;4977239;28;20249;-65
2021/12/18 08:22:54;;;;;;;;;;;;;;;1.93;58.38;97498.19;4976451;28;20064;-67
2021/12/18 08:25:19;;;;;;;;;;;;;;;1.93;58.85;97511.34;4980194;28;20021;-67
2021/12/18 08:27:44;;;;;;;;;;;;;;;2.02;58.71;97508.25;4986027;28;19997;-65
2021/12/18 08:30:10;;;;;;;;;;;;;;;2.08;57.94;97507.09;4986505;28;19981;-66
2021/12/18 08:32:35;;;;;;;;;;;;;;;2.14;58.17;97510.25;4973841;28;20195;-69
2021/12/18 08:35:00;;;;;;;;;;;;;;;2.24;58.70;97515.03;4979127;28;20001;-68
2021/12/18 08:37:26;;;;;;;;;;;;;;;2.19;57.42;97514.44;4976965;28;19982;-65
2021/12/18 08:39:51;;;;;;;;;;;;;;;2.20;58.89;97506.47;4974415;28;19994;-66
2021/12/18 08:42:16;;;;;;;;;;;;;;;2.31;57.54;97503.28;4979273;28;19966;-68
2021/12/18 08:44:41;;;;;;;;;;;;;;;2.26;55.78;97507.94;4981779;28;20000;-66
2021/12/18 08:47:07;;;;;;;;;;;;;;;2.25;57.86;97506.25;4981417;28;19978;-65
2021/12/18 08:49:32;;;;;;;;;;;;;;;2.33;57.90;97505.84;4979874;28;19974;-65
2021/12/18 08:51:57;;;;;;;;;;;;;;;2.41;57.45;97495.78;4973665;28;19990;-68
2021/12/18 08:54:23;;;;;;;;;;;;;;;2.53;57.67;97499.56;4978965;28;20466;-67
2021/12/18 08:56:48;;;;;;;;;;;;;;;2.61;57.16;97507.03;4974557;28;20001;-65
2021/12/18 08:59:13;;;;;;;;;;;;;;;2.68;57.07;97502.31;4981552;28;20020;-69
2021/12/18 09:01:39;;;;;;;;;;;;;;;2.75;56.48;97499.25;4982019;28;20341;-66
2021/12/18 09:04:04;;;;;;;;;;;;;;;2.86;57.06;97501.31;4981677;28;19994;-66
2021/12/18 09:06:29;;;;;;;;;;;;;;;2.94;56.79;97498.25;4982118;28;20360;-67
2021/12/18 09:08:55;;;;;;;;;;;;;;;3.04;55.70;97494.19;4971902;28;20336;-67
2021/12/18 09:11:20;;;;;;;;;;;;;;;3.14;56.32;97493.69;4981373;28;20430;-68
2021/12/18 09:13:45;;;;;;;;;;;;;;;3.29;56.26;97486.72;4981791;28;20057;-67
2021/12/18 09:16:10;;;;;;;;;;;;;;;3.39;55.61;97487.03;4981078;28;20439;-66
2021/12/18 09:18:36;;;;;;;;;;;;;;;3.45;54.75;97492.00;4981395;28;19981;-65
2021/12/18 09:21:01;;;;;;;;;;;;;;;3.58;54.78;97494.81;4981301;28;19998;-68
2021/12/18 09:23:26;;;;;;;;;;;;;;;3.67;55.29;97501.31;4980918;28;19989;-68
2021/12/18 09:25:51;;;;;;;;;;;;;;;3.50;54.51;97508.41;4981415;28;20009;-66
2021/12/18 09:28:17;;;;;;;;;;;;;;;3.72;54.58;97504.56;4974564;28;19993;-66
2021/12/18 09:30:42;;;;;;;;;;;;;;;3.80;53.66;97498.81;4966488;28;20731;-70
2021/12/18 09:33:09;;;;;;;;;;;;;;;3.70;52.92;97503.78;4971296;28;20020;-69
2021/12/18 09:35:34;;;;;;;;;;;;;;;3.66;54.26;97495.22;4980502;28;20576;-67
2021/12/18 09:37:59;;;;;;;;;;;;;;;3.73;54.49;97494.84;4979570;28;19974;-69
2021/12/18 09:40:25;;;;;;;;;;;;;;;3.73;53.26;97500.97;4981063;28;20085;-64
2021/12/18 09:42:50;;;;;;;;;;;;;;;3.69;52.31;97494.19;4981154;28;20439;-68
2021/12/18 09:45:15;;;;;;;;;;;;;;;3.74;53.91;97492.13;4980532;28;19994;-68
2021/12/18 09:47:41;;;;;;;;;;;;;;;3.87;53.38;97494.03;4978183;28;19990;-66
2021/12/18 09:50:06;;;;;;;;;;;;;;;3.98;53.72;97488.16;4980676;28;19970;-68
2021/12/18 09:52:33;;;;;;;;;;;;;;;4.08;53.25;97484.03;4980597;28;20545;-66
2021/12/18 09:54:58;;;;;;;;;;;;;;;4.22;53.65;97479.72;4980782;28;19970;-68
2021/12/18 09:57:23;;;;;;;;;;;;;;;4.30;53.17;97474.84;4980509;28;20313;-69
2021/12/18 09:59:49;;;;;;;;;;;;;;;4.43;52.80;97474.97;4980322;28;19993;-67
2021/12/18 10:02:14;;;;;;;;;;;;;;;4.60;52.03;97476.56;4976114;28;19981;-68
2021/12/18 10:04:39;;;;;;;;;;;;;;;4.73;51.58;97481.09;4979984;28;20033;-69
2021/12/18 10:07:18;;;;;;;;;;;;;;;4.86;50.81;97481.16;4980410;28;19980;-68
2021/12/18 10:09:43;;;;;;;;;;;;;;;4.98;50.12;97477.75;4980440;28;20578;-67
2021/12/18 10:12:27;;;;;;;;;;;;;;;5.11;50.53;97469.94;4979635;28;20092;-66
2021/12/18 10:14:56;;;;;;;;;;;;;;;5.22;50.19;97462.19;4971561;28;20020;-66
2021/12/18 10:17:26;;;;;;;;;;;;;;;5.20;48.99;97457.91;4979943;28;20001;-67
2021/12/18 10:19:51;;;;;;;;;;;;;;;5.15;48.90;97447.69;4967815;28;19994;-69
2021/12/18 10:22:17;;;;;;;;;;;;;;;5.19;49.56;97454.44;4980745;28;19970;-66
2021/12/18 10:24:43;;;;;;;;;;;;;;;5.13;49.22;97449.56;4979960;28;20396;-67
2021/12/18 10:27:15;;;;;;;;;;;;;;;5.00;50.44;97454.72;4980048;28;20128;-66
2021/12/18 10:29:41;;;;;;;;;;;;;;;5.01;47.19;97452.94;4976164;28;20355;-68
2021/12/18 10:32:07;;;;;;;;;;;;;;;4.98;48.57;97456.63;4979956;28;20001;-64
2021/12/18 10:34:33;;;;;;;;;;;;;;;4.82;44.40;97452.31;4978025;28;20013;-65
2021/12/18 10:37:17;;;;;;;;;;;;;;;5.05;48.84;97457.09;4978736;28;20307;-67
2021/12/18 10:40:03;;;;;;;;;;;;;;;5.36;47.97;97444.59;4971761;28;20064;-67
2021/12/18 10:42:42;;;;;;;;;;;;;;;5.37;46.77;97446.25;4979675;28;19981;-66
2021/12/18 10:45:14;;;;;;;;;;;;;;;5.53;48.78;97440.84;4979715;28;20056;-69
2021/12/18 10:47:50;;;;;;;;;;;;;;;5.57;47.92;97438.81;4972239;28;20735;-66
2021/12/18 10:50:15;;;;;;;;;;;;;;;5.32;45.04;97443.94;4975319;28;20051;-68
2021/12/18 10:52:40;;;;;;;;;;;;;;;5.21;44.91;97452.53;4979183;28;20461;-68
2021/12/18 10:55:06;;;;;;;;;;;;;;;5.12;49.60;97445.22;4978238;28;19997;-65
2021/12/18 10:57:31;;;;;;;;;;;;;;;5.42;47.39;97440.69;4979837;28;19993;-66
2021/12/18 10:59:58;;;;;;;;;;;;;;;5.29;48.07;97433.56;4979310;28;19998;-68
2021/12/18 11:02:24;;;;;;;;;;;;;;;5.63;48.42;97429.66;4978642;28;19974;-69
2021/12/18 11:04:49;;;;;;;;;;;;;;;5.91;47.15;97433.94;4992965;28;20063;-67
2021/12/18 11:07:15;;;;;;;;;;;;;;;5.48;45.83;97432.38;4978461;28;20352;-66
2021/12/18 11:09:46;;;;;;;;;;;;;;;5.26;45.72;97431.13;4979902;28;19966;-68
2021/12/18 11:14:55;;;;;;;;;;;;;;;5.73;43.58;97428.09;4978790;28;20096;-67
2021/12/18 11:17:20;;;;;;;;;;;;;;;5.60;45.05;97428.91;4978585;28;20088;-65
2021/12/18 11:19:45;;;;;;;;;;;;;;;5.85;42.76;97423.78;4975637;28;19993;-66
2021/12/18 11:22:12;;;;;;;;;;;;;;;5.62;44.74;97418.25;4979553;28;20013;-67
2021/12/18 11:24:44;;;;;;;;;;;;;;;5.44;45.45;97413.22;4979197;28;19994;-64
2021/12/18 11:27:10;;;;;;;;;;;;;;;5.37;46.83;97408.47;4978588;28;20006;-67
2021/12/18 11:29:40;;;;;;;;;;;;;;;5.33;47.68;97406.00;4974479;28;20353;-66
2021/12/18 11:32:06;;;;;;;;;;;;;;;5.23;46.69;97412.84;4969084;28;19994;-65
2021/12/18 11:34:31;;;;;;;;;;;;;;;5.09;47.06;97400.53;4978837;28;19994;-65
2021/12/18 11:36:59;;;;;;;;;;;;;;;5.26;45.70;97396.78;4978271;28;20460;-66
2021/12/18 11:39:24;;;;;;;;;;;;;;;4.95;47.14;97393.47;4979414;28;19970;-68
2021/12/18 11:41:50;;;;;;;;;;;;;;;5.09;48.47;97384.69;4976607;28;19981;-65
2021/12/18 11:44:22;;;;;;;;;;;;;;;5.11;48.60;97382.81;4976391;28;20449;-66
2021/12/18 11:46:47;;;;;;;;;;;;;;;5.34;47.96;97388.38;4978759;28;20033;-66
2021/12/18 11:49:13;;;;;;;;;;;;;;;5.53;45.97;97384.50;4974960;28;19994;-66
2021/12/18 11:51:38;;;;;;;;;;;;;;;5.51;48.80;97375.84;4977077;28;20002;-66
2021/12/18 11:54:05;;;;;;;;;;;;;;;4.93;46.18;97369.81;4978058;28;20434;-68
2021/12/18 11:56:49;;;;;;;;;;;;;;;5.25;49.26;97367.84;4978354;28;20520;-65
2021/12/18 11:59:14;;;;;;;;;;;;;;;5.71;48.79;97356.84;4976992;28;20486;-67
2021/12/18 12:01:43;;;;;;;;;;;;;;;6.10;47.52;97362.16;4977003;28;19982;-66
2021/12/18 12:04:08;;;;;;;;;;;;;;;6.42;46.50;97352.06;4978188;28;20009;-66
2021/12/18 12:06:33;;;;;;;;;;;;;;;6.57;46.34;97361.59;4977970;28;20033;-67
2021/12/18 12:09:21;;;;;;;;;;;;;;;6.78;45.80;97366.28;4976778;28;19994;-67
2021/12/18 12:11:53;;;;;;;;;;;;;;;6.93;45.45;97359.03;4977810;28;20486;-67
2021/12/18 12:14:19;;;;;;;;;;;;;;;6.96;43.20;97355.28;4977635;28;20455;-66
2021/12/18 12:16:45;;;;;;;;;;;;;;;7.07;44.79;97357.19;4972863;28;19994;-67
2021/12/18 12:19:11;;;;;;;;;;;;;;;6.86;44.12;97360.41;4969712;28;19974;-67
2021/12/18 12:21:44;;;;;;;;;;;;;;;6.23;45.58;97361.28;4978464;28;20393;-69
2021/12/18 12:24:09;;;;;;;;;;;;;;;5.74;46.68;97355.78;4978383;28;20037;-68
2021/12/18 12:26:34;;;;;;;;;;;;;;;5.46;47.79;97357.66;4978291;28;20037;-65
2021/12/18 12:29:00;;;;;;;;;;;;;;;6.11;45.41;97344.47;4977854;28;20128;-66
2021/12/18 12:31:25;;;;;;;;;;;;;;;5.45;47.45;97340.94;4979026;28;19994;-67
2021/12/18 12:33:50;;;;;;;;;;;;;;;5.21;48.83;97344.28;4971721;28;20347;-67
2021/12/18 12:36:25;;;;;;;;;;;;;;;5.25;48.23;97344.94;4974027;28;20470;-65
2021/12/18 12:38:51;;;;;;;;;;;;;;;5.28;47.92;97346.53;4978529;28;20422;-66
2021/12/18 12:41:25;;;;;;;;;;;;;;;5.01;47.50;97344.72;4977688;28;20621;-65
2021/12/18 12:43:51;;;;;;;;;;;;;;;4.42;49.48;97349.31;4971809;28;20098;-66
2021/12/18 12:46:17;;;;;;;;;;;;;;;4.61;49.46;97343.69;4957522;28;20001;-66
2021/12/18 12:49:02;;;;;;;;;;;;;;;5.05;48.85;97340.94;4971477;28;20037;-68
2021/12/18 12:51:47;;;;;;;;;;;;;;;4.71;49.69;97339.53;4974305;28;20068;-68
2021/12/18 12:54:32;;;;;;;;;;;;;;;4.79;49.50;97339.03;4973436;28;19997;-67
2021/12/18 12:57:16;;;;;;;;;;;;;;;4.50;50.43;97330.34;4976126;28;20001;-67
2021/12/18 12:59:42;;;;;;;;;;;;;;;4.08;50.16;97346.94;4977000;28;20435;-67
2021/12/18 13:02:08;;;;;;;;;;;;;;;3.59;52.06;97346.34;4977749;28;20025;-64
2021/12/18 13:04:33;;;;;;;;;;;;;;;3.17;51.58;97349.59;4976090;28;20002;-64
2021/12/18 13:07:05;;;;;;;;;;;;;;;2.99;53.00;97342.78;4977789;28;19977;-65
2021/12/18 13:09:31;;;;;;;;;;;;;;;2.79;54.88;97347.34;4999265;28;20033;-65
2021/12/18 13:12:00;;;;;;;;;;;;;;;2.97;53.79;97340.22;5002432;28;20064;-64
2021/12/18 13:14:25;;;;;;;;;;;;;;;3.19;52.75;97338.97;4995595;28;20573;-66
2021/12/18 13:16:50;;;;;;;;;;;;;;;2.12;54.97;97343.09;5001413;28;19997;-66
2021/12/18 13:19:15;;;;;;;;;;;;;;;1.77;56.34;97335.31;5008031;28;19974;-65
2021/12/18 13:21:41;;;;;;;;;;;;;;;2.12;57.30;97336.03;5003453;28;20504;-64
2021/12/18 13:24:06;;;;;;;;;;;;;;;1.69;55.78;97339.16;4999684;28;20564;-65
2021/12/18 13:26:38;;;;;;;;;;;;;;;1.50;57.18;97337.44;5003197;28;19973;-65
2021/12/18 13:29:12;;;;;;;;;;;;;;;1.71;57.12;97344.34;4999782;28;20005;-66
2021/12/18 13:31:44;;;;;;;;;;;;;;;1.08;57.60;97343.94;5010858;28;20387;-65
2021/12/18 13:34:10;;;;;;;;;;;;;;;1.28;58.44;97331.59;5000401;28;20123;-65
2021/12/18 13:36:43;;;;;;;;;;;;;;;1.35;58.78;97333.84;4999768;28;20041;-65
2021/12/18 13:39:09;;;;;;;;;;;;;;;1.33;58.31;97330.44;5017773;28;20081;-62